Time;durP1;ratioP1;P1;durP2;ratioP2;P2;SDS_P1;SDS_P2;PMS_P1;PMS_P2;Temp;Humidity;BMP_temperature;BMP_pressure;BME280_temperature;BME280_humidity;BME280_pressure;Samples;Min_cycle;Max_cycle;Signal;HPM_P1;HPM_P2
2022/11/24 00:02:00;;;;;;;19.48;9.98;;;3.50;97.00;;;;;;4965477;28;20527;-67
2022/11/24 00:04:26;;;;;;;18.30;9.25;;;3.50;96.90;;;;;;4964946;28;20054;-67
2022/11/24 00:06:54;;;;;;;17.75;9.70;;;3.40;96.80;;;;;;4964934;28;20046;-67
2022/11/24 00:09:20;;;;;;;16.92;10.18;;;3.40;97.00;;;;;;4967465;28;20035;-67
2022/11/24 00:11:46;;;;;;;18.25;10.00;;;3.40;96.90;;;;;;4964375;28;20658;-67
2022/11/24 00:14:12;;;;;;;22.92;10.38;;;3.30;97.10;;;;;;4963179;28;20058;-67
2022/11/24 00:16:38;;;;;;;20.83;9.95;;;3.20;97.20;;;;;;4964134;28;20513;-67
2022/11/24 00:19:08;;;;;;;18.35;9.40;;;3.10;97.30;;;;;;4964820;28;20042;-67
2022/11/24 00:21:35;;;;;;;20.48;11.02;;;3.20;97.50;;;;;;4961822;28;20117;-67
2022/11/24 00:24:01;;;;;;;20.52;9.88;;;3.20;97.40;;;;;;4964166;28;20082;-68
2022/11/24 00:26:32;;;;;;;17.17;9.82;;;3.20;97.40;;;;;;4967341;28;20069;-68
2022/11/24 00:29:00;;;;;;;18.05;9.98;;;3.20;97.30;;;;;;4962886;28;20126;-67
2022/11/24 00:31:32;;;;;;;18.88;10.23;;;3.20;97.40;;;;;;4963983;28;20030;-67
2022/11/24 00:34:00;;;;;;;19.35;9.65;;;3.20;97.40;;;;;;4963373;28;20175;-67
2022/11/24 00:36:29;;;;;;;19.63;10.10;;;3.20;97.60;;;;;;4963615;28;20118;-67
2022/11/24 00:38:57;;;;;;;18.73;10.82;;;3.30;97.30;;;;;;4962600;28;20082;-67
2022/11/24 00:41:24;;;;;;;18.98;9.60;;;3.30;97.10;;;;;;4970030;28;20039;-67
2022/11/24 00:43:51;;;;;;;16.30;10.13;;;3.40;97.10;;;;;;4966883;28;20166;-67
2022/11/24 00:46:17;;;;;;;18.30;10.00;;;3.40;97.00;;;;;;4966963;28;20031;-68
2022/11/24 00:48:43;;;;;;;21.15;10.00;;;3.40;97.00;;;;;;4964627;28;20403;-67
2022/11/24 00:51:11;;;;;;;16.48;9.40;;;3.50;96.90;;;;;;4963268;28;20070;-68
2022/11/24 00:53:37;;;;;;;18.00;9.38;;;3.40;96.90;;;;;;4961899;28;20027;-68
2022/11/24 00:56:03;;;;;;;15.77;9.02;;;3.50;96.80;;;;;;4965847;28;20797;-67
2022/11/24 00:58:30;;;;;;;21.27;9.70;;;3.40;96.90;;;;;;4971103;28;20120;-67
2022/11/24 01:01:01;;;;;;;15.63;9.02;;;3.40;96.90;;;;;;4962989;28;20042;-68
2022/11/24 01:03:27;;;;;;;19.25;9.43;;;3.30;97.00;;;;;;4968363;28;20081;-67
2022/11/24 01:05:52;;;;;;;20.73;9.85;;;3.30;97.10;;;;;;4964488;28;20054;-67
2022/11/24 01:08:18;;;;;;;16.15;8.80;;;3.30;97.10;;;;;;4964498;28;20566;-67
2022/11/24 01:10:44;;;;;;;24.08;10.23;;;3.30;97.00;;;;;;4962161;28;20483;-67
2022/11/24 01:13:11;;;;;;;17.23;9.07;;;3.40;96.80;;;;;;4962283;28;20026;-67
2022/11/24 01:15:37;;;;;;;18.00;9.52;;;3.40;96.50;;;;;;4970003;28;20065;-67
2022/11/24 01:18:03;;;;;;;19.80;10.13;;;3.40;96.60;;;;;;4965463;28;20758;-68
2022/11/24 01:20:30;;;;;;;17.58;9.00;;;3.40;96.60;;;;;;4965938;28;20041;-67
2022/11/24 01:22:55;;;;;;;14.30;9.25;;;3.40;96.50;;;;;;4964312;28;20038;-69
2022/11/24 01:25:21;;;;;;;17.17;9.32;;;3.50;96.60;;;;;;4962823;28;20270;-66
2022/11/24 01:27:47;;;;;;;17.08;8.73;;;3.50;96.50;;;;;;4962715;28;20495;-66
2022/11/24 01:30:13;;;;;;;17.60;9.38;;;3.50;96.50;;;;;;4962619;28;20035;-67
2022/11/24 01:32:39;;;;;;;15.63;8.50;;;3.50;96.30;;;;;;4965200;28;20436;-67
2022/11/24 01:35:05;;;;;;;17.65;9.02;;;3.50;96.30;;;;;;4968746;28;20566;-66
2022/11/24 01:37:32;;;;;;;19.17;9.45;;;3.40;96.30;;;;;;4967990;28;20065;-67
2022/11/24 01:39:58;;;;;;;18.27;10.52;;;3.40;96.30;;;;;;4964294;28;20834;-67
2022/11/24 01:42:24;;;;;;;18.83;9.65;;;3.40;96.30;;;;;;4963806;28;20498;-66
2022/11/24 01:45:31;;;;;;;15.10;8.27;;;3.40;96.30;;;;;;4964064;28;20043;-67
2022/11/24 01:47:58;;;;;;;16.73;9.38;;;3.40;96.20;;;;;;4962207;28;20035;-66
2022/11/24 01:50:24;;;;;;;15.43;8.15;;;3.40;96.20;;;;;;4961879;28;20031;-67
2022/11/24 01:52:53;;;;;;;18.73;9.70;;;3.40;96.10;;;;;;4963483;28;20073;-67
2022/11/24 01:55:22;;;;;;;15.88;8.35;;;3.50;96.10;;;;;;4963795;28;20031;-66
2022/11/24 01:58:18;;;;;;;14.75;9.00;;;3.50;96.00;;;;;;4962273;28;20417;-66
2022/11/24 02:00:44;;;;;;;17.30;9.15;;;3.40;96.10;;;;;;4980632;28;20101;-66
2022/11/24 02:03:16;;;;;;;17.60;8.43;;;3.40;96.10;;;;;;4968078;28;20046;-66
2022/11/24 02:05:50;;;;;;;15.48;8.93;;;3.50;96.00;;;;;;4965259;28;20034;-67
2022/11/24 02:08:39;;;;;;;13.55;8.23;;;3.50;96.00;;;;;;4966070;28;20093;-67
2022/11/24 02:11:05;;;;;;;17.98;9.27;;;3.50;96.00;;;;;;4966740;28;20046;-67
2022/11/24 02:13:34;;;;;;;15.65;8.48;;;3.40;95.90;;;;;;4967433;28;20026;-67
2022/11/24 02:16:01;;;;;;;15.82;8.93;;;3.40;95.90;;;;;;4965477;28;20027;-67
2022/11/24 02:18:28;;;;;;;16.40;8.80;;;3.40;95.80;;;;;;4972020;28;20141;-67
2022/11/24 02:20:54;;;;;;;16.90;8.60;;;3.40;95.90;;;;;;4968042;28;20790;-67
2022/11/24 02:23:35;;;;;;;14.65;8.98;;;3.30;96.00;;;;;;4968272;28;20035;-66
2022/11/24 02:26:26;;;;;;;20.10;9.80;;;3.20;96.10;;;;;;4965407;28;20046;-66
2022/11/24 02:28:51;;;;;;;16.80;8.63;;;3.20;96.30;;;;;;4964352;28;20050;-66
2022/11/24 02:31:17;;;;;;;16.63;8.98;;;3.20;96.20;;;;;;4966007;28;20403;-66
2022/11/24 02:33:43;;;;;;;14.70;8.32;;;3.20;96.10;;;;;;4967635;28;20121;-67
2022/11/24 02:36:09;;;;;;;14.77;8.55;;;3.20;95.90;;;;;;4970093;28;20038;-68
2022/11/24 02:38:35;;;;;;;16.55;9.23;;;3.10;96.00;;;;;;4970367;28;20038;-66
2022/11/24 02:41:06;;;;;;;16.63;8.95;;;3.10;96.00;;;;;;4967150;28;20050;-66
2022/11/24 02:43:38;;;;;;;18.50;9.38;;;3.10;96.10;;;;;;4967066;28;20124;-67
2022/11/24 02:46:04;;;;;;;17.67;9.38;;;3.10;96.00;;;;;;4965986;28;20399;-66
2022/11/24 02:48:29;;;;;;;16.27;8.52;;;3.10;95.90;;;;;;4967736;28;20030;-67
2022/11/24 02:50:55;;;;;;;16.38;8.52;;;3.10;95.90;;;;;;4970942;28;20108;-66
2022/11/24 02:53:21;;;;;;;17.85;9.52;;;3.00;95.80;;;;;;4972406;28;20027;-68
2022/11/24 02:55:47;;;;;;;13.18;7.88;;;3.00;95.60;;;;;;4969580;28;20536;-67
2022/11/24 02:58:13;;;;;;;16.88;8.45;;;3.00;95.50;;;;;;4967871;28;20046;-67
2022/11/24 03:00:39;;;;;;;14.60;8.45;;;2.90;95.50;;;;;;4965373;28;20038;-67
2022/11/24 03:03:05;;;;;;;14.98;7.88;;;2.80;95.90;;;;;;4964597;28;20499;-67
2022/11/24 03:05:31;;;;;;;17.40;8.55;;;2.80;95.60;;;;;;4963546;28;20093;-66
2022/11/24 03:07:56;;;;;;;15.63;8.60;;;2.80;95.90;;;;;;4970257;28;20788;-67
2022/11/24 03:10:23;;;;;;;17.17;8.85;;;2.80;96.20;;;;;;4969389;28;20031;-66
2022/11/24 03:12:49;;;;;;;17.83;8.88;;;2.80;96.30;;;;;;4967641;28;20037;-67
2022/11/24 03:15:15;;;;;;;17.40;8.73;;;2.70;96.30;;;;;;4967451;28;20043;-67
2022/11/24 03:17:40;;;;;;;17.58;8.05;;;2.80;96.30;;;;;;4965069;28;20082;-67
2022/11/24 03:20:07;;;;;;;15.55;8.52;;;2.80;96.10;;;;;;4963136;28;20034;-68
2022/11/24 03:22:33;;;;;;;16.25;8.27;;;2.80;96.10;;;;;;4962778;28;20039;-69
2022/11/24 03:24:59;;;;;;;14.23;8.30;;;2.70;96.00;;;;;;4961074;28;20745;-67
2022/11/24 03:27:24;;;;;;;17.52;9.45;;;2.70;96.00;;;;;;4969559;28;20053;-69
2022/11/24 03:29:50;;;;;;;16.75;8.98;;;2.70;96.20;;;;;;4965686;28;20722;-69
2022/11/24 03:32:16;;;;;;;15.13;8.15;;;2.70;96.40;;;;;;4968426;28;20031;-69
2022/11/24 03:34:42;;;;;;;16.10;8.73;;;2.70;96.30;;;;;;4964086;28;20034;-69
2022/11/24 03:37:07;;;;;;;17.98;8.63;;;2.70;96.30;;;;;;4963570;28;20053;-69
2022/11/24 03:39:33;;;;;;;17.10;8.38;;;2.70;96.40;;;;;;4965764;28;20035;-69
2022/11/24 03:41:59;;;;;;;18.15;9.77;;;2.70;96.40;;;;;;4964353;28;20085;-69
2022/11/24 03:44:24;;;;;;;16.83;8.85;;;2.70;96.40;;;;;;4967021;28;20042;-68
2022/11/24 03:46:50;;;;;;;19.23;9.68;;;2.70;96.40;;;;;;4966754;28;20034;-68
2022/11/24 03:49:16;;;;;;;17.20;8.85;;;2.70;96.40;;;;;;4966589;28;20718;-68
2022/11/24 03:51:42;;;;;;;21.67;10.32;;;2.80;96.50;;;;;;4964047;28;20514;-69
2022/11/24 03:54:08;;;;;;;19.73;9.88;;;2.70;96.30;;;;;;4965202;28;20043;-67
2022/11/24 03:56:34;;;;;;;16.73;9.43;;;2.80;96.20;;;;;;4967063;28;20022;-68
2022/11/24 03:59:00;;;;;;;20.40;9.68;;;2.80;96.40;;;;;;4964745;28;20145;-69
2022/11/24 04:01:25;;;;;;;20.40;9.75;;;2.80;96.30;;;;;;4963664;28;20029;-68
2022/11/24 04:03:51;;;;;;;18.08;9.57;;;2.80;96.20;;;;;;4966122;28;20034;-68
2022/11/24 04:06:17;;;;;;;15.85;8.60;;;2.90;96.30;;;;;;4965377;28;20025;-69
2022/11/24 04:08:43;;;;;;;15.18;7.65;;;2.80;96.50;;;;;;4963478;28;20039;-69
2022/11/24 04:12:42;;;;;;;17.05;10.15;;;2.80;96.10;;;;;;4966672;28;20042;-69
2022/11/24 04:13:54;;;;;;;15.23;8.13;;;2.90;95.90;;;;;;4965509;28;20250;-68
2022/11/24 04:16:20;;;;;;;17.95;8.48;;;2.90;95.80;;;;;;4966059;28;20039;-69
2022/11/24 04:18:45;;;;;;;14.65;8.23;;;2.90;95.50;;;;;;4964161;28;20034;-67
2022/11/24 04:21:11;;;;;;;16.90;8.75;;;2.90;95.50;;;;;;4963333;28;20039;-68
2022/11/24 04:23:37;;;;;;;19.35;10.10;;;2.90;95.60;;;;;;4964125;28;20125;-69
2022/11/24 04:26:03;;;;;;;19.90;10.00;;;2.90;95.60;;;;;;4963052;28;20046;-67
2022/11/24 04:28:28;;;;;;;16.58;9.15;;;2.90;95.50;;;;;;4970268;28;20046;-67
2022/11/24 04:30:54;;;;;;;17.70;8.93;;;2.80;95.40;;;;;;4966603;28;20066;-68
2022/11/24 04:33:20;;;;;;;16.30;8.68;;;2.80;95.20;;;;;;4965248;28;20031;-67
2022/11/24 04:35:46;;;;;;;19.52;9.98;;;2.80;95.30;;;;;;4964740;28;20034;-68
2022/11/24 04:38:11;;;;;;;17.10;8.15;;;2.80;95.50;;;;;;4963657;28;20030;-69
2022/11/24 04:40:37;;;;;;;19.80;9.77;;;2.70;95.70;;;;;;4961852;28;20117;-67
2022/11/24 04:43:03;;;;;;;17.58;9.48;;;2.70;95.70;;;;;;4965810;28;20083;-67
2022/11/24 04:45:28;;;;;;;17.42;9.40;;;2.70;95.80;;;;;;4970628;28;20042;-66
2022/11/24 04:47:54;;;;;;;18.63;8.85;;;2.60;95.70;;;;;;4966819;28;20050;-69
2022/11/24 04:50:20;;;;;;;18.13;9.55;;;2.70;95.80;;;;;;4966905;28;20061;-69
2022/11/24 04:52:46;;;;;;;17.67;8.77;;;2.70;95.80;;;;;;4965117;28;20026;-67
2022/11/24 04:55:12;;;;;;;17.60;9.20;;;2.60;95.80;;;;;;4960793;28;20034;-67
2022/11/24 04:57:38;;;;;;;18.58;9.45;;;2.60;95.80;;;;;;4962159;28;20073;-69
2022/11/24 05:00:04;;;;;;;17.15;8.02;;;2.60;95.80;;;;;;4965226;28;20039;-67
2022/11/24 05:02:30;;;;;;;16.38;8.75;;;2.70;95.80;;;;;;4970861;28;20042;-67
2022/11/24 05:04:56;;;;;;;17.60;9.57;;;2.60;95.80;;;;;;4967095;28;20093;-67
2022/11/24 05:07:21;;;;;;;14.23;8.38;;;2.70;95.80;;;;;;4967193;28;20042;-68
2022/11/24 05:12:32;;;;;;;18.05;8.95;;;2.60;95.90;;;;;;4963728;28;20030;-67
2022/11/24 05:14:59;;;;;;;21.83;9.82;;;2.60;95.90;;;;;;4962737;28;20031;-68
2022/11/24 05:17:30;;;;;;;16.30;8.93;;;2.60;95.90;;;;;;4962408;28;20118;-68
2022/11/24 05:19:56;;;;;;;14.80;8.02;;;2.60;95.90;;;;;;4966337;28;20042;-69
2022/11/24 05:22:22;;;;;;;19.60;9.13;;;2.50;95.90;;;;;;4966529;28;20452;-69
2022/11/24 05:24:48;;;;;;;20.40;10.13;;;2.50;96.00;;;;;;4966608;28;20130;-69
2022/11/24 05:27:13;;;;;;;15.77;8.20;;;2.50;96.00;;;;;;4963706;28;20487;-69
2022/11/24 05:29:39;;;;;;;16.38;8.57;;;2.50;96.00;;;;;;4961375;28;20035;-69
2022/11/24 05:32:05;;;;;;;16.13;8.65;;;2.50;96.00;;;;;;4961198;28;20066;-69
2022/11/24 05:34:34;;;;;;;17.48;8.80;;;2.50;95.90;;;;;;4964220;28;20783;-69
2022/11/24 05:37:02;;;;;;;17.33;8.63;;;2.60;95.90;;;;;;4965316;28;20118;-69
2022/11/24 05:39:30;;;;;;;19.23;9.60;;;2.60;95.80;;;;;;4970659;28;20044;-68
2022/11/24 05:41:56;;;;;;;17.27;9.85;;;2.60;95.80;;;;;;4967556;28;20034;-69
2022/11/24 05:44:22;;;;;;;17.02;9.25;;;2.60;95.80;;;;;;4964188;28;20431;-69
2022/11/24 05:46:48;;;;;;;19.85;9.18;;;2.60;95.80;;;;;;4964546;28;20117;-69
2022/11/24 05:49:13;;;;;;;17.42;9.90;;;2.60;95.70;;;;;;4964749;28;20527;-69
2022/11/24 05:51:39;;;;;;;15.60;8.80;;;2.60;95.60;;;;;;4964827;28;20035;-68
2022/11/24 05:54:05;;;;;;;16.30;8.90;;;2.70;95.50;;;;;;4966210;28;20181;-69
2022/11/24 05:56:30;;;;;;;18.98;8.82;;;2.60;95.60;;;;;;4962729;28;20278;-69
2022/11/24 05:58:56;;;;;;;18.65;9.15;;;2.60;95.60;;;;;;4966285;28;20042;-69
2022/11/24 06:01:22;;;;;;;16.95;8.32;;;2.70;95.70;;;;;;4964685;28;20039;-69
2022/11/24 06:03:48;;;;;;;21.25;9.55;;;2.70;95.80;;;;;;4964636;28;20070;-69
2022/11/24 06:06:13;;;;;;;15.63;8.38;;;2.70;95.80;;;;;;4964440;28;20035;-69
2022/11/24 06:08:39;;;;;;;15.40;8.00;;;2.70;95.80;;;;;;4964052;28;20446;-69
2022/11/24 06:11:17;;;;;;;15.50;8.80;;;2.70;96.10;;;;;;4964197;28;20039;-69
2022/11/24 06:13:44;;;;;;;19.98;9.27;;;2.70;95.80;;;;;;4964007;28;20041;-69
2022/11/24 06:16:11;;;;;;;18.67;9.80;;;2.70;95.90;;;;;;4964637;28;20035;-69
2022/11/24 06:18:37;;;;;;;17.98;9.23;;;2.70;95.90;;;;;;4963923;28;20126;-69
2022/11/24 06:21:03;;;;;;;16.17;9.52;;;2.70;95.90;;;;;;4966504;28;20832;-69
2022/11/24 06:23:29;;;;;;;18.73;9.63;;;2.80;96.10;;;;;;4963821;28;20089;-69
2022/11/24 06:25:57;;;;;;;19.20;9.57;;;2.80;96.00;;;;;;4963948;28;20554;-69
2022/11/24 06:28:23;;;;;;;20.48;9.82;;;2.80;96.00;;;;;;4963977;28;20038;-68
2022/11/24 06:30:49;;;;;;;19.35;10.07;;;2.80;96.00;;;;;;4964076;28;20080;-68
2022/11/24 06:33:15;;;;;;;18.42;9.75;;;2.80;96.00;;;;;;4963664;28;20038;-69
2022/11/24 06:35:41;;;;;;;22.00;10.85;;;2.80;95.90;;;;;;4962048;28;20109;-69
2022/11/24 06:38:06;;;;;;;17.58;9.75;;;2.80;96.00;;;;;;4964750;28;20521;-69
2022/11/24 06:40:32;;;;;;;20.35;10.15;;;2.80;96.10;;;;;;4965949;28;20034;-68
2022/11/24 06:42:58;;;;;;;17.73;8.93;;;2.90;96.00;;;;;;4953217;28;20741;-68
2022/11/24 06:45:24;;;;;;;25.15;10.13;;;2.90;95.90;;;;;;4963811;28;20822;-68
2022/11/24 06:47:53;;;;;;;21.08;10.30;;;3.00;95.90;;;;;;4964018;28;20462;-69
2022/11/24 06:50:19;;;;;;;17.13;9.52;;;3.00;95.80;;;;;;4964173;28;20039;-69
2022/11/24 06:52:45;;;;;;;22.88;10.63;;;3.00;95.80;;;;;;4963392;28;20039;-71
2022/11/24 06:55:10;;;;;;;22.25;11.00;;;3.00;95.90;;;;;;4963471;28;20038;-69
2022/11/24 06:57:36;;;;;;;18.38;9.10;;;3.00;95.80;;;;;;4965912;28;20062;-69
2022/11/24 07:00:04;;;;;;;17.00;9.15;;;3.00;95.90;;;;;;4963506;28;20034;-70
2022/11/24 07:02:30;;;;;;;22.75;10.57;;;3.00;95.90;;;;;;4964651;28;20545;-70
2022/11/24 07:04:56;;;;;;;23.38;10.55;;;3.10;95.90;;;;;;4962921;28;20101;-70
2022/11/24 07:07:22;;;;;;;16.08;9.18;;;3.20;96.00;;;;;;4962770;28;20046;-69
2022/11/24 07:09:47;;;;;;;19.20;10.32;;;3.20;95.80;;;;;;4963772;28;20031;-68
2022/11/24 07:12:13;;;;;;;20.67;9.95;;;3.20;95.80;;;;;;4965668;28;20035;-69
2022/11/24 07:14:39;;;;;;;19.90;10.02;;;3.20;95.60;;;;;;4963287;28;20034;-69
2022/11/24 07:17:05;;;;;;;21.33;9.73;;;3.30;95.60;;;;;;4963471;28;20031;-71
2022/11/24 07:19:31;;;;;;;21.58;9.95;;;3.30;95.60;;;;;;4961877;28;20558;-70
2022/11/24 07:21:57;;;;;;;16.10;9.20;;;3.30;95.60;;;;;;4962954;28;20039;-70
2022/11/24 07:24:22;;;;;;;19.90;10.05;;;3.30;95.70;;;;;;4965419;28;20036;-70
2022/11/24 07:26:48;;;;;;;19.27;9.85;;;3.40;95.70;;;;;;4963149;28;20439;-70
2022/11/24 07:29:14;;;;;;;20.23;10.88;;;3.40;95.50;;;;;;4962415;28;20587;-69
2022/11/24 07:31:41;;;;;;;16.67;8.85;;;3.50;95.50;;;;;;4962603;28;20144;-70
2022/11/24 07:34:07;;;;;;;18.92;9.27;;;3.50;95.50;;;;;;4960994;28;20487;-68
2022/11/24 07:36:32;;;;;;;22.23;10.68;;;3.50;95.60;;;;;;4957966;28;20035;-69
2022/11/24 07:38:58;;;;;;;22.27;9.77;;;3.60;95.40;;;;;;4962857;28;20117;-68
2022/11/24 07:41:24;;;;;;;25.50;10.35;;;3.60;95.40;;;;;;4961982;28;20027;-68
2022/11/24 07:43:50;;;;;;;19.52;10.52;;;3.60;95.20;;;;;;4962131;28;20030;-68
2022/11/24 07:46:18;;;;;;;18.30;9.70;;;3.60;95.30;;;;;;4962894;28;20141;-67
2022/11/24 07:48:44;;;;;;;18.77;9.77;;;3.60;95.30;;;;;;4962976;28;20405;-67
2022/11/24 07:51:10;;;;;;;19.90;9.63;;;3.60;95.30;;;;;;4963468;28;20065;-68
2022/11/24 07:53:37;;;;;;;17.23;10.25;;;3.70;95.20;;;;;;4963045;28;20126;-67
2022/11/24 07:56:05;;;;;;;21.98;10.82;;;3.70;95.20;;;;;;4962471;28;20039;-67
2022/11/24 07:58:33;;;;;;;20.70;11.13;;;3.80;95.00;;;;;;4968306;28;20043;-67
2022/11/24 08:00:59;;;;;;;19.60;10.25;;;3.70;94.80;;;;;;4963785;28;20039;-67
2022/11/24 08:03:25;;;;;;;21.75;10.65;;;3.80;95.00;;;;;;4964918;28;20026;-67
2022/11/24 08:05:58;;;;;;;19.02;10.98;;;3.90;95.00;;;;;;4963248;28;20042;-70
2022/11/24 08:08:25;;;;;;;19.95;9.95;;;4.00;94.80;;;;;;4960132;28;20054;-65
2022/11/24 08:10:51;;;;;;;21.77;11.40;;;4.00;94.60;;;;;;4962255;28;20043;-67
2022/11/24 08:13:18;;;;;;;20.58;10.00;;;4.10;94.60;;;;;;4961911;28;20039;-67
2022/11/24 08:15:44;;;;;;;20.52;10.85;;;4.20;94.70;;;;;;4964191;28;20028;-67
2022/11/24 08:18:10;;;;;;;22.83;11.35;;;4.20;94.60;;;;;;4962308;28;20449;-67
2022/11/24 08:20:36;;;;;;;21.15;10.57;;;4.20;94.50;;;;;;4960166;28;20039;-67
2022/11/24 08:23:02;;;;;;;18.50;10.70;;;4.30;94.50;;;;;;4962501;28;20042;-67
2022/11/24 08:25:32;;;;;;;22.27;11.45;;;4.30;94.50;;;;;;4962030;28;20050;-66
2022/11/24 08:27:59;;;;;;;19.92;10.60;;;4.40;94.70;;;;;;4961523;28;20038;-66
2022/11/24 08:30:25;;;;;;;20.65;9.70;;;4.50;94.40;;;;;;4960637;28;20038;-65
2022/11/24 08:32:51;;;;;;;18.55;9.45;;;4.50;94.40;;;;;;4961847;28;20045;-69
2022/11/24 08:35:17;;;;;;;19.92;10.25;;;4.60;94.50;;;;;;4960888;28;20066;-69
2022/11/24 08:37:43;;;;;;;19.80;10.88;;;4.70;94.60;;;;;;4961719;28;20097;-69
2022/11/24 08:40:10;;;;;;;23.17;11.52;;;4.70;94.40;;;;;;4962541;28;20034;-69
2022/11/24 08:42:36;;;;;;;20.92;11.02;;;4.80;94.30;;;;;;4962905;28;20043;-69
2022/11/24 08:45:02;;;;;;;22.67;11.02;;;4.80;94.40;;;;;;4962084;28;20117;-69
2022/11/24 08:47:28;;;;;;;21.92;11.88;;;4.90;94.20;;;;;;4961213;28;20066;-69
2022/11/24 08:49:53;;;;;;;21.55;10.95;;;5.00;94.10;;;;;;4966742;28;20149;-69
2022/11/24 08:52:19;;;;;;;21.73;11.20;;;5.00;93.60;;;;;;4961171;28;20474;-69
2022/11/24 08:54:45;;;;;;;20.85;11.32;;;5.00;93.90;;;;;;4961643;28;20065;-69
2022/11/24 08:57:13;;;;;;;20.63;11.20;;;5.00;93.90;;;;;;4960658;28;20038;-70
2022/11/24 08:59:38;;;;;;;22.33;11.05;;;4.90;93.90;;;;;;4961454;28;20039;-69
2022/11/24 09:02:05;;;;;;;24.42;12.20;;;5.00;94.10;;;;;;4960689;28;20057;-69
2022/11/24 09:04:31;;;;;;;20.02;11.48;;;5.00;94.10;;;;;;4960789;28;20081;-69
2022/11/24 09:06:57;;;;;;;19.90;10.88;;;5.00;94.10;;;;;;4962836;28;20034;-67
2022/11/24 09:09:22;;;;;;;19.95;10.73;;;5.00;94.20;;;;;;4963165;28;20039;-70
2022/11/24 09:11:48;;;;;;;22.95;11.30;;;5.00;94.10;;;;;;4959849;28;20043;-70
2022/11/24 09:14:14;;;;;;;21.08;10.30;;;5.00;94.20;;;;;;4962109;28;20061;-70
2022/11/24 09:16:40;;;;;;;23.15;11.07;;;5.10;94.20;;;;;;4959148;28;20030;-70
2022/11/24 09:19:09;;;;;;;22.20;11.43;;;5.10;94.10;;;;;;4959888;28;20597;-70
2022/11/24 09:21:37;;;;;;;24.48;12.52;;;5.10;94.00;;;;;;4960879;28;20097;-70
2022/11/24 09:24:06;;;;;;;21.85;11.82;;;5.20;94.10;;;;;;4959824;28;20659;-67
2022/11/24 09:26:34;;;;;;;21.80;12.45;;;5.20;93.90;;;;;;4957512;28;20035;-67
2022/11/24 09:29:01;;;;;;;20.50;11.82;;;5.20;94.00;;;;;;4961496;28;20039;-70
2022/11/24 09:31:32;;;;;;;18.70;12.15;;;5.20;94.10;;;;;;4964731;28;20035;-70
2022/11/24 09:33:58;;;;;;;22.05;10.52;;;5.30;94.10;;;;;;4960419;28;20037;-70
2022/11/24 09:36:24;;;;;;;26.05;13.10;;;5.30;94.20;;;;;;4960422;28;20217;-70
2022/11/24 09:38:50;;;;;;;20.52;11.27;;;5.40;94.00;;;;;;4959075;28;20035;-69
2022/11/24 09:41:35;;;;;;;23.17;11.98;;;5.50;93.90;;;;;;4960571;28;20410;-69
2022/11/24 09:44:28;;;;;;;25.23;12.35;;;5.50;93.90;;;;;;4957020;28;20096;-69
2022/11/24 09:47:11;;;;;;;28.52;12.57;;;5.50;93.90;;;;;;4962355;28;20065;-70
2022/11/24 09:50:10;;;;;;;27.05;13.40;;;5.60;93.80;;;;;;4960305;28;20416;-67
2022/11/24 09:53:02;;;;;;;21.50;11.25;;;5.60;93.80;;;;;;4953577;28;20593;-66
2022/11/24 09:55:48;;;;;;;22.77;10.75;;;5.50;93.90;;;;;;4961067;28;20030;-67
2022/11/24 09:58:35;;;;;;;22.75;12.57;;;5.50;94.40;;;;;;4959162;28;20688;-67
2022/11/24 10:01:07;;;;;;;26.35;12.13;;;5.70;94.80;;;;;;4974385;28;20046;-70
2022/11/24 10:03:43;;;;;;;21.45;11.23;;;5.90;93.80;;;;;;4956622;28;20126;-67
2022/11/24 10:06:30;;;;;;;23.58;12.88;;;6.10;93.50;;;;;;4960796;28;20035;-67
2022/11/24 10:09:27;;;;;;;23.17;12.13;;;6.30;93.40;;;;;;4956724;28;20133;-70
2022/11/24 10:12:20;;;;;;;25.95;12.38;;;6.30;92.90;;;;;;4959029;28;20093;-67
2022/11/24 10:14:49;;;;;;;23.65;12.35;;;6.20;93.20;;;;;;4959538;28;20043;-70
2022/11/24 10:17:32;;;;;;;23.98;12.20;;;6.10;93.30;;;;;;4959625;28;20299;-70
2022/11/24 10:20:29;;;;;;;24.65;12.65;;;6.10;93.30;;;;;;4959890;28;20057;-70
2022/11/24 10:23:10;;;;;;;20.63;11.05;;;6.10;93.40;;;;;;4963760;28;20570;-67
2022/11/24 10:25:55;;;;;;;25.33;12.07;;;6.10;93.50;;;;;;4962358;28;20034;-67
2022/11/24 10:28:24;;;;;;;24.65;13.00;;;6.00;93.70;;;;;;4963163;28;20102;-70
2022/11/24 10:30:50;;;;;;;23.58;12.65;;;6.00;94.00;;;;;;4962651;28;20050;-70
2022/11/24 10:33:19;;;;;;;24.23;12.35;;;6.10;94.00;;;;;;4963658;28;20034;-67
2022/11/24 10:36:06;;;;;;;23.65;12.52;;;6.20;93.90;;;;;;4964470;28;20070;-67
2022/11/24 10:38:49;;;;;;;21.63;11.35;;;6.30;94.00;;;;;;4962287;28;20042;-68
2022/11/24 10:41:45;;;;;;;24.90;11.52;;;6.40;93.90;;;;;;4961183;28;20034;-68
2022/11/24 10:44:14;;;;;;;18.10;9.82;;;6.60;93.70;;;;;;4962268;28;20555;-69
2022/11/24 10:46:40;;;;;;;26.33;12.35;;;6.60;93.70;;;;;;4963354;28;20736;-68
2022/11/24 10:49:11;;;;;;;23.20;12.13;;;6.70;93.70;;;;;;4963854;28;20141;-68
2022/11/24 10:52:13;;;;;;;22.70;11.50;;;6.80;93.50;;;;;;4963271;28;20058;-68
2022/11/24 10:54:59;;;;;;;24.52;12.43;;;6.90;93.30;;;;;;4964194;28;20396;-68
2022/11/24 10:57:31;;;;;;;26.48;13.00;;;6.90;93.20;;;;;;4965859;28;20135;-68
2022/11/24 10:59:58;;;;;;;20.10;11.13;;;6.90;93.00;;;;;;4963425;28;20041;-68
2022/11/24 11:02:38;;;;;;;19.35;11.38;;;7.00;93.00;;;;;;4963593;28;20815;-68
2022/11/24 11:05:26;;;;;;;24.65;11.88;;;7.10;92.80;;;;;;4962289;28;20125;-68
2022/11/24 11:08:18;;;;;;;20.27;11.52;;;7.10;92.70;;;;;;4961050;28;20039;-68
2022/11/24 11:10:45;;;;;;;20.08;11.63;;;7.10;92.50;;;;;;4963073;28;20093;-68
2022/11/24 11:13:25;;;;;;;24.23;13.23;;;7.10;92.40;;;;;;4961027;28;20085;-70
2022/11/24 11:15:51;;;;;;;24.90;12.40;;;7.10;92.30;;;;;;4962985;28;20046;-69
2022/11/24 11:18:18;;;;;;;26.42;13.00;;;7.00;92.30;;;;;;4960854;28;20053;-67
2022/11/24 11:20:54;;;;;;;27.08;13.50;;;6.90;92.60;;;;;;4961369;28;20050;-69
2022/11/24 11:23:25;;;;;;;27.17;14.32;;;6.90;92.80;;;;;;4960733;28;20534;-69
2022/11/24 11:26:10;;;;;;;22.45;12.15;;;6.80;93.10;;;;;;4963275;28;20818;-70
2022/11/24 11:28:37;;;;;;;27.17;14.20;;;6.80;93.10;;;;;;4961567;28;20125;-68
2022/11/24 11:31:04;;;;;;;27.88;15.20;;;6.90;93.20;;;;;;4961945;28;20031;-68
2022/11/24 11:33:32;;;;;;;25.08;13.93;;;6.90;93.20;;;;;;4966967;28;20478;-68
2022/11/24 11:36:00;;;;;;;28.63;14.40;;;6.90;93.10;;;;;;4963345;28;20030;-67
2022/11/24 11:38:34;;;;;;;27.63;14.65;;;6.90;93.20;;;;;;4960644;28;20546;-67
2022/11/24 11:41:01;;;;;;;26.20;13.55;;;6.90;93.50;;;;;;4961677;28;20042;-69
2022/11/24 11:43:39;;;;;;;27.98;14.00;;;6.90;93.70;;;;;;4963649;28;20112;-68
2022/11/24 11:46:16;;;;;;;26.48;14.05;;;6.90;93.70;;;;;;4962732;28;20389;-68
2022/11/24 11:48:45;;;;;;;22.95;12.52;;;7.00;93.60;;;;;;4962463;28;20051;-68
2022/11/24 11:51:30;;;;;;;29.02;15.13;;;7.00;93.70;;;;;;4963063;28;20469;-68
2022/11/24 11:54:10;;;;;;;27.15;14.15;;;7.10;93.70;;;;;;4975213;28;20031;-68
2022/11/24 11:57:37;;;;;;;26.17;14.25;;;7.20;93.60;;;;;;4962264;28;20041;-68
2022/11/24 12:00:11;;;;;;;24.80;12.93;;;7.20;93.50;;;;;;4935773;28;20036;-67
2022/11/24 12:02:45;;;;;;;25.23;15.00;;;7.20;93.50;;;;;;4937929;28;20047;-68
2022/11/24 12:05:23;;;;;;;26.67;13.88;;;7.20;93.60;;;;;;4952649;28;20047;-68
2022/11/24 12:08:06;;;;;;;25.17;13.13;;;7.20;93.70;;;;;;4962062;28;20058;-68
2022/11/24 12:10:38;;;;;;;27.63;14.55;;;7.30;93.90;;;;;;4961490;28;20122;-67
2022/11/24 12:13:31;;;;;;;28.30;14.65;;;7.30;93.60;;;;;;4962612;28;20031;-66
2022/11/24 12:16:20;;;;;;;24.90;13.57;;;7.30;93.60;;;;;;4961751;28;20621;-69
2022/11/24 12:19:09;;;;;;;26.15;13.98;;;7.40;93.60;;;;;;4959821;28;20130;-69
2022/11/24 12:21:44;;;;;;;26.35;13.63;;;7.40;93.60;;;;;;4959213;28;20082;-67
2022/11/24 12:24:18;;;;;;;29.38;14.82;;;7.40;93.50;;;;;;4965194;28;20789;-67
2022/11/24 12:26:47;;;;;;;27.80;14.43;;;7.40;93.60;;;;;;4961873;28;20600;-67
2022/11/24 12:29:34;;;;;;;26.27;13.82;;;7.50;93.60;;;;;;4958821;28;20039;-69
2022/11/24 12:32:29;;;;;;;23.27;12.73;;;7.50;93.30;;;;;;4961737;28;20035;-68
2022/11/24 12:35:27;;;;;;;24.45;13.15;;;7.50;93.50;;;;;;4938469;28;20047;-69
2022/11/24 12:38:34;;;;;;;25.25;13.55;;;7.50;93.50;;;;;;4976437;28;20137;-67
2022/11/24 12:41:15;;;;;;;23.90;13.43;;;7.60;93.60;;;;;;4955282;28;20133;-68
2022/11/24 12:43:49;;;;;;;30.25;14.80;;;7.60;93.60;;;;;;4960456;28;20071;-70
2022/11/24 12:46:29;;;;;;;105.60;44.78;;;7.60;93.30;;;;;;4957931;28;20038;-68
2022/11/24 12:49:13;;;;;;;42.15;21.08;;;7.60;93.50;;;;;;4960545;28;20039;-68
2022/11/24 12:51:43;;;;;;;47.90;23.67;;;7.50;93.60;;;;;;4964264;28;20133;-67
2022/11/24 12:54:13;;;;;;;26.50;15.07;;;7.40;93.60;;;;;;4961366;28;20038;-68
2022/11/24 12:56:48;;;;;;;30.00;14.52;;;7.40;94.00;;;;;;4961449;28;20035;-70
2022/11/24 12:59:26;;;;;;;22.50;12.43;;;7.40;94.20;;;;;;4976514;28;20027;-69
2022/11/24 13:02:23;;;;;;;20.45;12.35;;;7.50;94.20;;;;;;4958880;28;20059;-70